sensor_id;sensor_type;location;lat;lon;timestamp;P1;durP1;ratioP1;P2;durP2;ratioP2
46613;SDS011;32338;50.430;6.806;2024-02-26T00:00:48;0.65;;;0.40;;
46613;SDS011;32338;50.430;6.806;2024-02-26T00:03:14;0.60;;;0.20;;
46613;SDS011;32338;50.430;6.806;2024-02-26T00:05:41;2.83;;;0.30;;
46613;SDS011;32338;50.430;6.806;2024-02-26T00:08:07;1.20;;;0.50;;
46613;SDS011;32338;50.430;6.806;2024-02-26T00:10:34;0.35;;;0.25;;
46613;SDS011;32338;50.430;6.806;2024-02-26T00:13:01;0.43;;;0.20;;
46613;SDS011;32338;50.430;6.806;2024-02-26T00:15:27;0.57;;;0.17;;
46613;SDS011;32338;50.430;6.806;2024-02-26T00:17:55;0.32;;;0.28;;
46613;SDS011;32338;50.430;6.806;2024-02-26T00:20:22;0.73;;;0.20;;
46613;SDS011;32338;50.430;6.806;2024-02-26T00:22:48;0.75;;;0.20;;
46613;SDS011;32338;50.430;6.806;2024-02-26T00:25:15;1.98;;;0.20;;
46613;SDS011;32338;50.430;6.806;2024-02-26T00:27:41;0.47;;;0.30;;
46613;SDS011;32338;50.430;6.806;2024-02-26T00:30:09;0.73;;;0.32;;
46613;SDS011;32338;50.430;6.806;2024-02-26T00:32:37;0.30;;;0.28;;
46613;SDS011;32338;50.430;6.806;2024-02-26T00:35:05;0.68;;;0.30;;
46613;SDS011;32338;50.430;6.806;2024-02-26T00:37:34;0.40;;;0.22;;
46613;SDS011;32338;50.430;6.806;2024-02-26T00:40:01;1.15;;;0.20;;
46613;SDS011;32338;50.430;6.806;2024-02-26T00:42:28;0.22;;;0.13;;
46613;SDS011;32338;50.430;6.806;2024-02-26T00:44:54;1.10;;;0.20;;
46613;SDS011;32338;50.430;6.806;2024-02-26T00:47:21;1.58;;;0.30;;
46613;SDS011;32338;50.430;6.806;2024-02-26T00:49:47;1.92;;;0.30;;
46613;SDS011;32338;50.430;6.806;2024-02-26T00:52:15;0.82;;;0.45;;
46613;SDS011;32338;50.430;6.806;2024-02-26T00:54:42;1.15;;;0.30;;
46613;SDS011;32338;50.430;6.806;2024-02-26T00:57:08;1.23;;;0.22;;
46613;SDS011;32338;50.430;6.806;2024-02-26T00:59:35;1.38;;;0.20;;
46613;SDS011;32338;50.430;6.806;2024-02-26T01:02:01;0.30;;;0.20;;
46613;SDS011;32338;50.430;6.806;2024-02-26T01:04:30;0.40;;;0.20;;
46613;SDS011;32338;50.430;6.806;2024-02-26T01:06:57;0.75;;;0.40;;
46613;SDS011;32338;50.430;6.806;2024-02-26T01:09:25;1.30;;;0.40;;
46613;SDS011;32338;50.430;6.806;2024-02-26T01:11:51;0.38;;;0.20;;
46613;SDS011;32338;50.430;6.806;2024-02-26T01:14:18;0.47;;;0.30;;
46613;SDS011;32338;50.430;6.806;2024-02-26T01:16:44;1.60;;;0.32;;
46613;SDS011;32338;50.430;6.806;2024-02-26T01:19:11;0.40;;;0.30;;
46613;SDS011;32338;50.430;6.806;2024-02-26T01:21:38;0.50;;;0.20;;
46613;SDS011;32338;50.430;6.806;2024-02-26T01:24:05;0.20;;;0.20;;
46613;SDS011;32338;50.430;6.806;2024-02-26T01:26:33;1.63;;;0.40;;
46613;SDS011;32338;50.430;6.806;2024-02-26T01:29:00;1.17;;;0.30;;
46613;SDS011;32338;50.430;6.806;2024-02-26T01:31:26;1.08;;;0.38;;
46613;SDS011;32338;50.430;6.806;2024-02-26T01:33:53;0.75;;;0.30;;
46613;SDS011;32338;50.430;6.806;2024-02-26T01:36:20;1.02;;;0.30;;
46613;SDS011;32338;50.430;6.806;2024-02-26T01:38:46;1.02;;;0.30;;
46613;SDS011;32338;50.430;6.806;2024-02-26T01:41:13;0.70;;;0.38;;
46613;SDS011;32338;50.430;6.806;2024-02-26T01:43:41;0.50;;;0.20;;
46613;SDS011;32338;50.430;6.806;2024-02-26T01:46:08;0.68;;;0.30;;
46613;SDS011;32338;50.430;6.806;2024-02-26T01:48:40;0.73;;;0.30;;
46613;SDS011;32338;50.430;6.806;2024-02-26T01:51:07;0.30;;;0.20;;
46613;SDS011;32338;50.430;6.806;2024-02-26T01:53:34;1.83;;;0.30;;
46613;SDS011;32338;50.430;6.806;2024-02-26T01:56:01;1.30;;;0.50;;
46613;SDS011;32338;50.430;6.806;2024-02-26T01:58:28;0.40;;;0.30;;
46613;SDS011;32338;50.430;6.806;2024-02-26T02:00:56;0.73;;;0.20;;
46613;SDS011;32338;50.430;6.806;2024-02-26T02:03:23;0.47;;;0.30;;
46613;SDS011;32338;50.430;6.806;2024-02-26T02:05:50;3.42;;;0.40;;
46613;SDS011;32338;50.430;6.806;2024-02-26T02:08:17;1.15;;;0.50;;
46613;SDS011;32338;50.430;6.806;2024-02-26T02:10:44;0.55;;;0.30;;
46613;SDS011;32338;50.430;6.806;2024-02-26T02:13:12;0.40;;;0.22;;
46613;SDS011;32338;50.430;6.806;2024-02-26T02:15:39;1.02;;;0.40;;
46613;SDS011;32338;50.430;6.806;2024-02-26T02:18:07;1.30;;;0.35;;
46613;SDS011;32338;50.430;6.806;2024-02-26T02:20:35;0.50;;;0.25;;
46613;SDS011;32338;50.430;6.806;2024-02-26T02:23:02;0.65;;;0.35;;
46613;SDS011;32338;50.430;6.806;2024-02-26T02:25:29;0.90;;;0.43;;
46613;SDS011;32338;50.430;6.806;2024-02-26T02:27:55;3.33;;;0.50;;
46613;SDS011;32338;50.430;6.806;2024-02-26T02:30:23;0.63;;;0.40;;
46613;SDS011;32338;50.430;6.806;2024-02-26T02:32:52;0.93;;;0.60;;
46613;SDS011;32338;50.430;6.806;2024-02-26T02:35:20;0.90;;;0.50;;
46613;SDS011;32338;50.430;6.806;2024-02-26T02:37:47;0.70;;;0.43;;
46613;SDS011;32338;50.430;6.806;2024-02-26T02:40:14;0.63;;;0.40;;
46613;SDS011;32338;50.430;6.806;2024-02-26T02:42:41;0.93;;;0.60;;
46613;SDS011;32338;50.430;6.806;2024-02-26T02:45:08;0.55;;;0.50;;
46613;SDS011;32338;50.430;6.806;2024-02-26T02:47:35;1.60;;;0.50;;
46613;SDS011;32338;50.430;6.806;2024-02-26T02:50:02;0.73;;;0.40;;
46613;SDS011;32338;50.430;6.806;2024-02-26T02:52:30;0.90;;;0.50;;
46613;SDS011;32338;50.430;6.806;2024-02-26T02:54:58;0.80;;;0.77;;
46613;SDS011;32338;50.430;6.806;2024-02-26T02:57:24;1.17;;;0.50;;
46613;SDS011;32338;50.430;6.806;2024-02-26T02:59:51;0.70;;;0.50;;
46613;SDS011;32338;50.430;6.806;2024-02-26T03:02:18;0.60;;;0.60;;
46613;SDS011;32338;50.430;6.806;2024-02-26T03:04:44;0.63;;;0.47;;
46613;SDS011;32338;50.430;6.806;2024-02-26T03:07:11;1.20;;;0.57;;
46613;SDS011;32338;50.430;6.806;2024-02-26T03:09:37;1.48;;;0.50;;
46613;SDS011;32338;50.430;6.806;2024-02-26T03:12:05;0.47;;;0.28;;
46613;SDS011;32338;50.430;6.806;2024-02-26T03:14:32;0.55;;;0.43;;
46613;SDS011;32338;50.430;6.806;2024-02-26T03:16:59;1.27;;;0.70;;
46613;SDS011;32338;50.430;6.806;2024-02-26T03:19:26;0.50;;;0.50;;
46613;SDS011;32338;50.430;6.806;2024-02-26T03:21:52;0.70;;;0.45;;
46613;SDS011;32338;50.430;6.806;2024-02-26T03:24:19;0.40;;;0.40;;
46613;SDS011;32338;50.430;6.806;2024-02-26T03:26:46;0.68;;;0.40;;
46613;SDS011;32338;50.430;6.806;2024-02-26T03:29:14;0.60;;;0.55;;
46613;SDS011;32338;50.430;6.806;2024-02-26T03:31:40;0.75;;;0.63;;
46613;SDS011;32338;50.430;6.806;2024-02-26T03:34:07;1.98;;;0.50;;
46613;SDS011;32338;50.430;6.806;2024-02-26T03:36:34;1.33;;;0.63;;
46613;SDS011;32338;50.430;6.806;2024-02-26T03:39:00;1.20;;;0.63;;
46613;SDS011;32338;50.430;6.806;2024-02-26T03:41:29;0.50;;;0.50;;
46613;SDS011;32338;50.430;6.806;2024-02-26T03:43:57;0.55;;;0.50;;
46613;SDS011;32338;50.430;6.806;2024-02-26T03:46:25;0.57;;;0.47;;
46613;SDS011;32338;50.430;6.806;2024-02-26T03:48:51;1.00;;;0.70;;
46613;SDS011;32338;50.430;6.806;2024-02-26T03:51:18;0.80;;;0.47;;
46613;SDS011;32338;50.430;6.806;2024-02-26T03:53:44;0.40;;;0.40;;
46613;SDS011;32338;50.430;6.806;2024-02-26T03:56:11;0.80;;;0.73;;
46613;SDS011;32338;50.430;6.806;2024-02-26T03:58:38;1.08;;;0.98;;
46613;SDS011;32338;50.430;6.806;2024-02-26T04:01:06;1.23;;;0.57;;
46613;SDS011;32338;50.430;6.806;2024-02-26T04:03:35;0.55;;;0.40;;
46613;SDS011;32338;50.430;6.806;2024-02-26T04:06:02;0.70;;;0.60;;
46613;SDS011;32338;50.430;6.806;2024-02-26T04:08:29;1.92;;;0.60;;
46613;SDS011;32338;50.430;6.806;2024-02-26T04:10:56;0.75;;;0.50;;
46613;SDS011;32338;50.430;6.806;2024-02-26T04:13:22;0.90;;;0.50;;
46613;SDS011;32338;50.430;6.806;2024-02-26T04:15:49;0.70;;;0.60;;
46613;SDS011;32338;50.430;6.806;2024-02-26T04:18:16;0.80;;;0.50;;
46613;SDS011;32338;50.430;6.806;2024-02-26T04:20:44;0.47;;;0.45;;
46613;SDS011;32338;50.430;6.806;2024-02-26T04:23:10;0.55;;;0.50;;
46613;SDS011;32338;50.430;6.806;2024-02-26T04:25:37;0.73;;;0.63;;
46613;SDS011;32338;50.430;6.806;2024-02-26T04:28:04;2.40;;;0.50;;
46613;SDS011;32338;50.430;6.806;2024-02-26T04:30:31;0.82;;;0.47;;
46613;SDS011;32338;50.430;6.806;2024-02-26T04:32:57;0.40;;;0.40;;
46613;SDS011;32338;50.430;6.806;2024-02-26T04:35:24;0.98;;;0.68;;
46613;SDS011;32338;50.430;6.806;2024-02-26T04:37:52;0.43;;;0.43;;
46613;SDS011;32338;50.430;6.806;2024-02-26T04:40:18;1.77;;;0.50;;
46613;SDS011;32338;50.430;6.806;2024-02-26T04:42:45;0.60;;;0.45;;
46613;SDS011;32338;50.430;6.806;2024-02-26T04:45:12;0.55;;;0.40;;
46613;SDS011;32338;50.430;6.806;2024-02-26T04:47:38;0.50;;;0.40;;
46613;SDS011;32338;50.430;6.806;2024-02-26T04:50:05;0.55;;;0.47;;
46613;SDS011;32338;50.430;6.806;2024-02-26T04:52:32;0.60;;;0.40;;
46613;SDS011;32338;50.430;6.806;2024-02-26T04:55:00;0.20;;;0.20;;
46613;SDS011;32338;50.430;6.806;2024-02-26T04:57:27;0.40;;;0.35;;
46613;SDS011;32338;50.430;6.806;2024-02-26T04:59:54;0.35;;;0.30;;
46613;SDS011;32338;50.430;6.806;2024-02-26T05:02:20;0.20;;;0.20;;
46613;SDS011;32338;50.430;6.806;2024-02-26T05:04:47;0.50;;;0.30;;
46613;SDS011;32338;50.430;6.806;2024-02-26T05:07:14;0.60;;;0.30;;
46613;SDS011;32338;50.430;6.806;2024-02-26T05:09:42;1.83;;;1.17;;
46613;SDS011;32338;50.430;6.806;2024-02-26T05:12:10;1.02;;;0.50;;
46613;SDS011;32338;50.430;6.806;2024-02-26T05:14:37;1.13;;;0.40;;
46613;SDS011;32338;50.430;6.806;2024-02-26T05:17:03;0.30;;;0.20;;
46613;SDS011;32338;50.430;6.806;2024-02-26T05:19:31;1.13;;;0.63;;
46613;SDS011;32338;50.430;6.806;2024-02-26T05:21:57;0.30;;;0.30;;
46613;SDS011;32338;50.430;6.806;2024-02-26T05:24:24;0.95;;;0.40;;
46613;SDS011;32338;50.430;6.806;2024-02-26T05:26:50;0.40;;;0.30;;
46613;SDS011;32338;50.430;6.806;2024-02-26T05:29:18;0.32;;;0.20;;
46613;SDS011;32338;50.430;6.806;2024-02-26T05:31:45;0.55;;;0.30;;
46613;SDS011;32338;50.430;6.806;2024-02-26T05:34:11;0.38;;;0.38;;
46613;SDS011;32338;50.430;6.806;2024-02-26T05:36:38;0.40;;;0.40;;
46613;SDS011;32338;50.430;6.806;2024-02-26T05:39:05;0.70;;;0.45;;
46613;SDS011;32338;50.430;6.806;2024-02-26T05:41:32;0.95;;;0.43;;
46613;SDS011;32338;50.430;6.806;2024-02-26T05:43:58;0.50;;;0.45;;
46613;SDS011;32338;50.430;6.806;2024-02-26T05:46:26;0.60;;;0.50;;
46613;SDS011;32338;50.430;6.806;2024-02-26T05:48:53;0.50;;;0.50;;
46613;SDS011;32338;50.430;6.806;2024-02-26T05:51:20;1.27;;;0.52;;
46613;SDS011;32338;50.430;6.806;2024-02-26T05:53:46;0.45;;;0.45;;
46613;SDS011;32338;50.430;6.806;2024-02-26T05:56:18;0.75;;;0.60;;
46613;SDS011;32338;50.430;6.806;2024-02-26T05:58:45;0.52;;;0.40;;
46613;SDS011;32338;50.430;6.806;2024-02-26T06:01:12;0.50;;;0.40;;
46613;SDS011;32338;50.430;6.806;2024-02-26T06:03:40;0.80;;;0.60;;
46613;SDS011;32338;50.430;6.806;2024-02-26T06:06:07;0.85;;;0.40;;
46613;SDS011;32338;50.430;6.806;2024-02-26T06:08:33;1.55;;;0.50;;
46613;SDS011;32338;50.430;6.806;2024-02-26T06:11:04;0.98;;;0.45;;
46613;SDS011;32338;50.430;6.806;2024-02-26T06:13:31;1.42;;;0.57;;
46613;SDS011;32338;50.430;6.806;2024-02-26T06:15:57;2.45;;;0.73;;
46613;SDS011;32338;50.430;6.806;2024-02-26T06:18:24;0.70;;;0.50;;
46613;SDS011;32338;50.430;6.806;2024-02-26T06:20:52;0.90;;;0.70;;
46613;SDS011;32338;50.430;6.806;2024-02-26T06:23:19;0.60;;;0.60;;
46613;SDS011;32338;50.430;6.806;2024-02-26T06:25:45;0.63;;;0.60;;
46613;SDS011;32338;50.430;6.806;2024-02-26T06:28:13;1.05;;;0.88;;
46613;SDS011;32338;50.430;6.806;2024-02-26T06:30:39;0.57;;;0.50;;
46613;SDS011;32338;50.430;6.806;2024-02-26T06:33:06;0.98;;;0.75;;
46613;SDS011;32338;50.430;6.806;2024-02-26T06:35:33;0.93;;;0.60;;
46613;SDS011;32338;50.430;6.806;2024-02-26T06:38:01;1.08;;;0.88;;
46613;SDS011;32338;50.430;6.806;2024-02-26T06:40:27;1.00;;;0.80;;
46613;SDS011;32338;50.430;6.806;2024-02-26T06:42:54;0.93;;;0.82;;
46613;SDS011;32338;50.430;6.806;2024-02-26T06:45:21;0.90;;;0.70;;
46613;SDS011;32338;50.430;6.806;2024-02-26T06:47:48;1.30;;;0.70;;
46613;SDS011;32338;50.430;6.806;2024-02-26T06:50:15;0.98;;;0.80;;
46613;SDS011;32338;50.430;6.806;2024-02-26T06:52:42;1.05;;;0.90;;
46613;SDS011;32338;50.430;6.806;2024-02-26T06:55:11;1.08;;;0.80;;
46613;SDS011;32338;50.430;6.806;2024-02-26T06:57:38;0.80;;;0.60;;
46613;SDS011;32338;50.430;6.806;2024-02-26T07:00:05;1.00;;;0.88;;
46613;SDS011;32338;50.430;6.806;2024-02-26T07:02:32;1.17;;;0.98;;
46613;SDS011;32338;50.430;6.806;2024-02-26T07:04:58;0.73;;;0.73;;
46613;SDS011;32338;50.430;6.806;2024-02-26T07:07:25;2.85;;;1.00;;
46613;SDS011;32338;50.430;6.806;2024-02-26T07:09:52;0.90;;;0.80;;
46613;SDS011;32338;50.430;6.806;2024-02-26T07:12:21;0.90;;;0.80;;
46613;SDS011;32338;50.430;6.806;2024-02-26T07:14:47;1.00;;;0.80;;
46613;SDS011;32338;50.430;6.806;2024-02-26T07:17:14;1.00;;;0.80;;
46613;SDS011;32338;50.430;6.806;2024-02-26T07:19:41;0.82;;;0.70;;
46613;SDS011;32338;50.430;6.806;2024-02-26T07:22:08;0.60;;;0.60;;
46613;SDS011;32338;50.430;6.806;2024-02-26T07:24:34;1.58;;;0.90;;
46613;SDS011;32338;50.430;6.806;2024-02-26T07:27:01;1.30;;;1.00;;
46613;SDS011;32338;50.430;6.806;2024-02-26T07:29:29;0.85;;;0.80;;
46613;SDS011;32338;50.430;6.806;2024-02-26T07:31:55;1.23;;;0.90;;
46613;SDS011;32338;50.430;6.806;2024-02-26T07:34:22;1.23;;;0.80;;
46613;SDS011;32338;50.430;6.806;2024-02-26T07:36:52;1.15;;;0.90;;
46613;SDS011;32338;50.430;6.806;2024-02-26T07:39:19;1.13;;;0.98;;
46613;SDS011;32338;50.430;6.806;2024-02-26T07:41:45;1.23;;;0.93;;
46613;SDS011;32338;50.430;6.806;2024-02-26T07:44:14;2.83;;;0.70;;
46613;SDS011;32338;50.430;6.806;2024-02-26T07:46:42;1.20;;;0.75;;
46613;SDS011;32338;50.430;6.806;2024-02-26T07:49:09;2.28;;;0.77;;
46613;SDS011;32338;50.430;6.806;2024-02-26T07:51:35;1.77;;;0.80;;
46613;SDS011;32338;50.430;6.806;2024-02-26T07:54:02;1.00;;;0.70;;
46613;SDS011;32338;50.430;6.806;2024-02-26T07:56:29;1.00;;;0.80;;
46613;SDS011;32338;50.430;6.806;2024-02-26T07:58:56;0.70;;;0.70;;
46613;SDS011;32338;50.430;6.806;2024-02-26T08:01:22;0.70;;;0.70;;
46613;SDS011;32338;50.430;6.806;2024-02-26T08:03:52;0.98;;;0.70;;
46613;SDS011;32338;50.430;6.806;2024-02-26T08:06:19;0.80;;;0.80;;
46613;SDS011;32338;50.430;6.806;2024-02-26T08:08:45;0.60;;;0.60;;
46613;SDS011;32338;50.430;6.806;2024-02-26T08:11:14;0.85;;;0.77;;
46613;SDS011;32338;50.430;6.806;2024-02-26T08:13:40;1.15;;;0.55;;
46613;SDS011;32338;50.430;6.806;2024-02-26T08:16:07;0.77;;;0.70;;
46613;SDS011;32338;50.430;6.806;2024-02-26T08:18:34;1.25;;;0.80;;
46613;SDS011;32338;50.430;6.806;2024-02-26T08:21:02;0.68;;;0.60;;
46613;SDS011;32338;50.430;6.806;2024-02-26T08:23:29;1.08;;;0.65;;
46613;SDS011;32338;50.430;6.806;2024-02-26T08:25:56;0.80;;;0.60;;
46613;SDS011;32338;50.430;6.806;2024-02-26T08:28:22;1.42;;;0.70;;
46613;SDS011;32338;50.430;6.806;2024-02-26T08:30:49;1.85;;;0.95;;
46613;SDS011;32338;50.430;6.806;2024-02-26T08:33:16;1.10;;;0.90;;
46613;SDS011;32338;50.430;6.806;2024-02-26T08:35:43;1.85;;;0.77;;
46613;SDS011;32338;50.430;6.806;2024-02-26T08:38:11;1.23;;;0.77;;
46613;SDS011;32338;50.430;6.806;2024-02-26T08:40:37;0.75;;;0.68;;
46613;SDS011;32338;50.430;6.806;2024-02-26T08:43:04;0.95;;;0.70;;
46613;SDS011;32338;50.430;6.806;2024-02-26T08:45:31;1.00;;;0.85;;
46613;SDS011;32338;50.430;6.806;2024-02-26T08:47:57;0.60;;;0.57;;
46613;SDS011;32338;50.430;6.806;2024-02-26T08:50:24;0.88;;;0.73;;
46613;SDS011;32338;50.430;6.806;2024-02-26T08:52:51;1.10;;;0.60;;
46613;SDS011;32338;50.430;6.806;2024-02-26T08:55:19;0.68;;;0.65;;
46613;SDS011;32338;50.430;6.806;2024-02-26T08:57:46;2.05;;;0.60;;
46613;SDS011;32338;50.430;6.806;2024-02-26T09:00:13;1.33;;;0.60;;
46613;SDS011;32338;50.430;6.806;2024-02-26T09:02:42;4.28;;;0.90;;
46613;SDS011;32338;50.430;6.806;2024-02-26T09:05:09;1.05;;;0.80;;
46613;SDS011;32338;50.430;6.806;2024-02-26T09:07:36;1.42;;;0.82;;
46613;SDS011;32338;50.430;6.806;2024-02-26T09:10:03;1.02;;;0.90;;
46613;SDS011;32338;50.430;6.806;2024-02-26T09:12:31;1.20;;;1.00;;
46613;SDS011;32338;50.430;6.806;2024-02-26T09:14:58;1.00;;;0.90;;
46613;SDS011;32338;50.430;6.806;2024-02-26T09:17:24;1.20;;;1.00;;
46613;SDS011;32338;50.430;6.806;2024-02-26T09:19:51;0.95;;;0.85;;
46613;SDS011;32338;50.430;6.806;2024-02-26T09:22:17;0.93;;;0.88;;
46613;SDS011;32338;50.430;6.806;2024-02-26T09:24:44;1.15;;;0.80;;
46613;SDS011;32338;50.430;6.806;2024-02-26T09:27:10;0.88;;;0.88;;
46613;SDS011;32338;50.430;6.806;2024-02-26T09:29:38;1.77;;;1.05;;
46613;SDS011;32338;50.430;6.806;2024-02-26T09:32:05;1.98;;;0.77;;
46613;SDS011;32338;50.430;6.806;2024-02-26T09:34:32;0.70;;;0.70;;
46613;SDS011;32338;50.430;6.806;2024-02-26T09:36:59;0.82;;;0.80;;
46613;SDS011;32338;50.430;6.806;2024-02-26T09:39:26;0.90;;;0.90;;
46613;SDS011;32338;50.430;6.806;2024-02-26T09:41:53;0.85;;;0.85;;
46613;SDS011;32338;50.430;6.806;2024-02-26T09:44:19;1.70;;;0.80;;
46613;SDS011;32338;50.430;6.806;2024-02-26T09:46:48;2.42;;;0.80;;
46613;SDS011;32338;50.430;6.806;2024-02-26T09:49:15;0.70;;;0.70;;
46613;SDS011;32338;50.430;6.806;2024-02-26T09:51:42;0.82;;;0.70;;
46613;SDS011;32338;50.430;6.806;2024-02-26T09:54:09;0.55;;;0.55;;
46613;SDS011;32338;50.430;6.806;2024-02-26T09:56:36;0.80;;;0.70;;
46613;SDS011;32338;50.430;6.806;2024-02-26T09:59:05;1.00;;;0.95;;
46613;SDS011;32338;50.430;6.806;2024-02-26T10:01:36;1.30;;;0.82;;
46613;SDS011;32338;50.430;6.806;2024-02-26T10:04:06;0.80;;;0.77;;
46613;SDS011;32338;50.430;6.806;2024-02-26T10:06:36;0.70;;;0.70;;
46613;SDS011;32338;50.430;6.806;2024-02-26T10:09:03;0.90;;;0.80;;
46613;SDS011;32338;50.430;6.806;2024-02-26T10:11:32;1.90;;;0.80;;
46613;SDS011;32338;50.430;6.806;2024-02-26T10:13:59;0.88;;;0.80;;
46613;SDS011;32338;50.430;6.806;2024-02-26T10:16:25;0.90;;;0.70;;
46613;SDS011;32338;50.430;6.806;2024-02-26T10:18:52;0.60;;;0.60;;
46613;SDS011;32338;50.430;6.806;2024-02-26T10:21:21;1.10;;;0.80;;
46613;SDS011;32338;50.430;6.806;2024-02-26T10:23:48;0.90;;;0.68;;
46613;SDS011;32338;50.430;6.806;2024-02-26T10:26:16;0.80;;;0.70;;
46613;SDS011;32338;50.430;6.806;2024-02-26T10:28:43;0.68;;;0.68;;
46613;SDS011;32338;50.430;6.806;2024-02-26T10:31:11;0.85;;;0.70;;
46613;SDS011;32338;50.430;6.806;2024-02-26T10:33:40;0.98;;;0.85;;
46613;SDS011;32338;50.430;6.806;2024-02-26T10:36:08;3.70;;;0.80;;
46613;SDS011;32338;50.430;6.806;2024-02-26T10:38:37;1.10;;;0.90;;
46613;SDS011;32338;50.430;6.806;2024-02-26T10:41:04;2.58;;;0.82;;
46613;SDS011;32338;50.430;6.806;2024-02-26T10:43:33;1.02;;;0.80;;
46613;SDS011;32338;50.430;6.806;2024-02-26T10:46:00;0.90;;;0.80;;
46613;SDS011;32338;50.430;6.806;2024-02-26T10:48:26;1.00;;;0.90;;
46613;SDS011;32338;50.430;6.806;2024-02-26T10:50:53;1.67;;;1.00;;
46613;SDS011;32338;50.430;6.806;2024-02-26T10:53:21;2.45;;;1.00;;
46613;SDS011;32338;50.430;6.806;2024-02-26T10:55:51;1.10;;;1.00;;
46613;SDS011;32338;50.430;6.806;2024-02-26T10:58:21;1.90;;;0.93;;
46613;SDS011;32338;50.430;6.806;2024-02-26T11:00:50;1.95;;;1.08;;
46613;SDS011;32338;50.430;6.806;2024-02-26T11:03:17;1.65;;;1.17;;
46613;SDS011;32338;50.430;6.806;2024-02-26T11:05:45;2.45;;;1.33;;
46613;SDS011;32338;50.430;6.806;2024-02-26T11:08:13;1.33;;;1.23;;
46613;SDS011;32338;50.430;6.806;2024-02-26T11:10:40;1.20;;;1.10;;
46613;SDS011;32338;50.430;6.806;2024-02-26T11:13:09;1.63;;;1.20;;
46613;SDS011;32338;50.430;6.806;2024-02-26T11:15:40;1.10;;;0.88;;
46613;SDS011;32338;50.430;6.806;2024-02-26T11:18:07;1.10;;;1.00;;
46613;SDS011;32338;50.430;6.806;2024-02-26T11:20:35;1.10;;;1.00;;
46613;SDS011;32338;50.430;6.806;2024-02-26T11:23:06;1.80;;;1.30;;
46613;SDS011;32338;50.430;6.806;2024-02-26T11:25:33;3.10;;;1.00;;
46613;SDS011;32338;50.430;6.806;2024-02-26T11:28:00;1.83;;;0.98;;
46613;SDS011;32338;50.430;6.806;2024-02-26T11:30:32;1.08;;;1.08;;
46613;SDS011;32338;50.430;6.806;2024-02-26T11:33:03;3.30;;;1.40;;
46613;SDS011;32338;50.430;6.806;2024-02-26T11:35:32;1.40;;;1.30;;
46613;SDS011;32338;50.430;6.806;2024-02-26T11:38:00;1.67;;;1.10;;
46613;SDS011;32338;50.430;6.806;2024-02-26T11:40:27;1.50;;;1.40;;
46613;SDS011;32338;50.430;6.806;2024-02-26T11:42:53;1.77;;;1.38;;
46613;SDS011;32338;50.430;6.806;2024-02-26T11:48:22;1.30;;;1.20;;
46613;SDS011;32338;50.430;6.806;2024-02-26T11:50:50;1.60;;;1.20;;
46613;SDS011;32338;50.430;6.806;2024-02-26T11:53:21;1.30;;;1.20;;
46613;SDS011;32338;50.430;6.806;2024-02-26T11:58:39;1.48;;;1.33;;
46613;SDS011;32338;50.430;6.806;2024-02-26T12:01:07;1.30;;;1.20;;
46613;SDS011;32338;50.430;6.806;2024-02-26T12:04:18;1.73;;;1.15;;
46613;SDS011;32338;50.430;6.806;2024-02-26T12:06:46;1.30;;;1.20;;
46613;SDS011;32338;50.430;6.806;2024-02-26T12:09:32;1.00;;;0.90;;
46613;SDS011;32338;50.430;6.806;2024-02-26T12:12:01;2.25;;;1.40;;
46613;SDS011;32338;50.430;6.806;2024-02-26T12:14:28;1.48;;;1.27;;
46613;SDS011;32338;50.430;6.806;2024-02-26T12:16:56;1.20;;;1.10;;
46613;SDS011;32338;50.430;6.806;2024-02-26T12:19:23;4.25;;;1.58;;
46613;SDS011;32338;50.430;6.806;2024-02-26T12:21:51;1.58;;;1.13;;
46613;SDS011;32338;50.430;6.806;2024-02-26T12:24:18;1.10;;;1.00;;
46613;SDS011;32338;50.430;6.806;2024-02-26T12:26:46;1.30;;;1.20;;
46613;SDS011;32338;50.430;6.806;2024-02-26T12:29:12;1.67;;;1.20;;
46613;SDS011;32338;50.430;6.806;2024-02-26T12:31:39;1.40;;;1.30;;
46613;SDS011;32338;50.430;6.806;2024-02-26T12:34:08;1.48;;;1.20;;
46613;SDS011;32338;50.430;6.806;2024-02-26T12:36:35;1.60;;;1.23;;
46613;SDS011;32338;50.430;6.806;2024-02-26T12:39:03;1.10;;;1.00;;
46613;SDS011;32338;50.430;6.806;2024-02-26T12:41:31;2.08;;;1.10;;
46613;SDS011;32338;50.430;6.806;2024-02-26T12:43:59;1.30;;;1.20;;
46613;SDS011;32338;50.430;6.806;2024-02-26T12:46:25;1.40;;;0.95;;
46613;SDS011;32338;50.430;6.806;2024-02-26T12:48:55;0.90;;;0.90;;
46613;SDS011;32338;50.430;6.806;2024-02-26T12:51:25;1.15;;;1.08;;
46613;SDS011;32338;50.430;6.806;2024-02-26T12:53:52;2.40;;;1.63;;
46613;SDS011;32338;50.430;6.806;2024-02-26T12:56:19;2.88;;;1.30;;
46613;SDS011;32338;50.430;6.806;2024-02-26T12:58:47;1.23;;;0.95;;
46613;SDS011;32338;50.430;6.806;2024-02-26T13:01:16;1.48;;;1.10;;
46613;SDS011;32338;50.430;6.806;2024-02-26T13:03:46;1.05;;;0.90;;
46613;SDS011;32338;50.430;6.806;2024-02-26T13:06:13;1.10;;;1.00;;
46613;SDS011;32338;50.430;6.806;2024-02-26T13:08:41;0.90;;;0.90;;
46613;SDS011;32338;50.430;6.806;2024-02-26T13:11:07;2.45;;;0.95;;
46613;SDS011;32338;50.430;6.806;2024-02-26T13:13:34;1.27;;;1.02;;
46613;SDS011;32338;50.430;6.806;2024-02-26T13:16:02;1.27;;;1.13;;
46613;SDS011;32338;50.430;6.806;2024-02-26T13:18:30;1.15;;;1.02;;
46613;SDS011;32338;50.430;6.806;2024-02-26T13:21:06;1.40;;;1.00;;
46613;SDS011;32338;50.430;6.806;2024-02-26T13:23:34;1.10;;;1.00;;
46613;SDS011;32338;50.430;6.806;2024-02-26T13:26:02;1.33;;;0.93;;
46613;SDS011;32338;50.430;6.806;2024-02-26T13:28:28;1.50;;;1.13;;
46613;SDS011;32338;50.430;6.806;2024-02-26T13:30:56;1.20;;;1.10;;
46613;SDS011;32338;50.430;6.806;2024-02-26T13:33:25;1.95;;;1.20;;
46613;SDS011;32338;50.430;6.806;2024-02-26T13:35:53;1.23;;;1.13;;
46613;SDS011;32338;50.430;6.806;2024-02-26T13:38:21;1.20;;;1.05;;
46613;SDS011;32338;50.430;6.806;2024-02-26T13:40:47;1.23;;;1.10;;
46613;SDS011;32338;50.430;6.806;2024-02-26T13:43:15;2.30;;;1.30;;
46613;SDS011;32338;50.430;6.806;2024-02-26T13:45:42;1.45;;;1.15;;
46613;SDS011;32338;50.430;6.806;2024-02-26T13:48:10;1.83;;;1.40;;
46613;SDS011;32338;50.430;6.806;2024-02-26T13:50:37;2.17;;;1.70;;
46613;SDS011;32338;50.430;6.806;2024-02-26T13:53:04;2.05;;;1.85;;
46613;SDS011;32338;50.430;6.806;2024-02-26T13:55:31;2.42;;;1.60;;
46613;SDS011;32338;50.430;6.806;2024-02-26T13:57:58;2.90;;;2.13;;
46613;SDS011;32338;50.430;6.806;2024-02-26T14:00:28;2.22;;;2.03;;
46613;SDS011;32338;50.430;6.806;2024-02-26T14:02:56;2.13;;;1.88;;
46613;SDS011;32338;50.430;6.806;2024-02-26T14:05:23;2.30;;;1.65;;
46613;SDS011;32338;50.430;6.806;2024-02-26T14:07:50;2.42;;;2.10;;
46613;SDS011;32338;50.430;6.806;2024-02-26T14:10:17;2.03;;;1.92;;
46613;SDS011;32338;50.430;6.806;2024-02-26T14:12:43;3.83;;;3.53;;
46613;SDS011;32338;50.430;6.806;2024-02-26T14:15:10;3.45;;;3.00;;
46613;SDS011;32338;50.430;6.806;2024-02-26T14:17:38;2.38;;;2.17;;
46613;SDS011;32338;50.430;6.806;2024-02-26T14:20:05;2.47;;;2.17;;
46613;SDS011;32338;50.430;6.806;2024-02-26T14:22:34;3.15;;;1.95;;
46613;SDS011;32338;50.430;6.806;2024-02-26T14:25:00;2.88;;;2.55;;
46613;SDS011;32338;50.430;6.806;2024-02-26T14:27:27;2.20;;;2.00;;
46613;SDS011;32338;50.430;6.806;2024-02-26T14:29:54;2.85;;;2.65;;
46613;SDS011;32338;50.430;6.806;2024-02-26T14:32:21;4.00;;;2.60;;
46613;SDS011;32338;50.430;6.806;2024-02-26T14:34:49;4.28;;;2.70;;
46613;SDS011;32338;50.430;6.806;2024-02-26T14:37:15;2.97;;;2.65;;
46613;SDS011;32338;50.430;6.806;2024-02-26T14:39:42;2.60;;;2.40;;
46613;SDS011;32338;50.430;6.806;2024-02-26T14:42:08;2.40;;;2.20;;
46613;SDS011;32338;50.430;6.806;2024-02-26T14:44:35;2.38;;;2.17;;
46613;SDS011;32338;50.430;6.806;2024-02-26T14:47:02;2.67;;;2.47;;
46613;SDS011;32338;50.430;6.806;2024-02-26T14:49:28;5.15;;;4.70;;
46613;SDS011;32338;50.430;6.806;2024-02-26T14:51:58;11.20;;;8.68;;
46613;SDS011;32338;50.430;6.806;2024-02-26T14:54:24;13.65;;;9.30;;